Latest Weather Observations for Essendon Airport

IDV60901

Issued at 5:51 am EST Friday 6 May 2016 (issued every 10 minutes, with the page automatically refreshed every 10 minutes)

About weather observations | Map of Melbourne area stations | Latest observations for Melbourne area | Other Formats
Station Details ID: 086038 Name: ESSENDON AIRPORT Lat: -37.73 Lon: 144.91 Height: 78.4 m
Data from the previous 72 hours. | See also: Recent months at Essendon Airport
Date/Time
EST
Tmp

°C
App
Tmp
°C
Dew
Point
°C
Rel
Hum
%
Delta-T

°C
Wind Press
QNH
hPa
Press
MSL
hPa
Rain
since
9 am
mm
Dir
 
Spd
km/h
Gust
km/h
Spd
kts
Gust
kts
06/05:30am 14.9 9.5 7.9 63 3.5 N 26 37 14 20 1013.9 1014.0 0.0
06/05:00am 14.8 9.0 7.8 63 3.5 N 28 41 15 22 1013.7 1013.8 0.0
06/04:30am 15.3 8.7 7.8 61 3.8 N 32 46 17 25 1013.7 1013.8 0.0
06/04:00am 15.0 8.4 7.8 62 3.6 N 32 48 17 26 1013.8 1013.9 0.0
06/03:30am 15.4 8.6 7.9 61 3.8 N 33 46 18 25 1013.5 1013.6 0.0
06/03:00am 15.5 9.0 8.0 61 3.8 N 32 46 17 25 1013.8 1013.9 0.0
06/02:30am 15.7 9.9 8.0 60 3.9 N 28 39 15 21 1014.0 1014.1 0.0
06/02:00am 15.8 9.6 7.8 59 4.0 N 30 41 16 22 1013.8 1013.9 0.0
06/01:40am 16.3 10.1 8.0 58 4.2 N 30 48 16 26 1013.7 1013.8 0.0
06/01:30am 16.3 9.8 8.0 58 4.2 N 32 43 17 23 1013.7 1013.8 0.0
06/01:00am 16.3 9.8 8.0 58 4.2 N 32 44 17 24 1013.6 1013.7 0.0
06/12:30am 16.3 9.6 8.0 58 4.2 N 33 50 18 27 1013.4 1013.5 0.0
06/12:28am 16.1 9.6 8.1 59 4.1 N 32 50 17 27 1013.4 1013.5 0.0
06/12:00am 16.5 9.4 8.2 58 4.2 N 35 48 19 26 1013.5 1013.6 0.0
 
Date/Time
EST
Tmp

°C
App
Tmp
°C
Dew
Point
°C
Rel
Hum
%
Delta-T

°C
Wind Press
QNH
hPa
Press
MSL
hPa
Rain
since
9 am
mm
Dir
 
Spd
km/h
Gust
km/h
Spd
kts
Gust
kts
05/11:35pm 16.8 9.4 8.2 57 4.4 N 37 56 20 30 1013.2 1013.3 0.0
05/11:30pm 16.7 9.7 8.4 58 4.2 N 35 50 19 27 1013.4 1013.5 0.0
05/11:00pm 16.8 11.1 8.5 58 4.3 N 28 41 15 22 1013.6 1013.7 0.0
05/10:30pm 16.8 11.9 8.5 58 4.3 N 24 33 13 18 1013.7 1013.8 0.0
05/10:00pm 16.8 12.0 8.8 59 4.1 N 24 33 13 18 1013.8 1013.9 0.0
05/09:30pm 17.3 12.5 9.0 58 4.3 N 24 33 13 18 1013.9 1014.0 0.0
05/09:00pm 17.5 12.7 8.9 57 4.5 N 24 37 13 20 1014.0 1014.1 0.0
05/08:30pm 18.2 13.4 9.0 55 4.8 N 24 39 13 21 1013.9 1014.0 0.0
05/08:00pm 18.2 13.4 9.0 55 4.8 N 24 35 13 19 1013.8 1013.9 0.0
05/07:30pm 18.0 14.0 9.1 56 4.7 NNE 20 26 11 14 1013.7 1013.8 0.0
05/07:00pm 17.8 13.8 9.2 57 4.5 NNE 20 35 11 19 1013.5 1013.6 0.0
05/06:30pm 18.0 14.1 9.4 57 4.5 NNE 20 32 11 17 1013.3 1013.4 0.0
05/06:00pm 18.3 14.0 9.4 56 4.7 NNE 22 32 12 17 1013.1 1013.2 0.0
05/05:30pm 18.9 13.9 9.4 54 5.0 N 26 33 14 18 1012.7 1012.8 0.0
05/05:00pm 19.5 14.5 9.4 52 5.4 N 26 39 14 21 1012.7 1012.8 0.0
05/04:35pm 20.0 14.6 9.6 51 5.6 N 28 46 15 25 1012.8 1012.9 0.0
05/04:30pm 20.1 14.4 9.7 51 5.6 N 30 44 16 24 1012.8 1012.9 0.0
05/04:00pm 20.4 14.1 9.6 50 5.8 N 33 48 18 26 1013.0 1013.1 0.0
05/03:30pm 20.1 14.0 9.7 51 5.6 N 32 46 17 25 1012.8 1012.9 0.0
05/03:17pm 20.3 14.6 9.8 51 5.6 N 30 48 16 26 1012.9 1013.0 0.0
05/03:00pm 20.7 15.0 9.9 50 5.8 N 30 46 16 25 1012.9 1013.0 0.0
05/02:30pm 20.4 14.6 9.3 49 5.9 N 30 48 16 26 1013.0 1013.1 0.0
05/02:01pm 20.0 14.1 9.0 49 5.8 N 30 48 16 26 1013.1 1013.2 0.0
05/02:00pm 20.3 14.4 9.2 49 5.9 N 30 46 16 25 1013.2 1013.3 0.0
05/01:34pm 19.1 13.0 9.6 54 5.1 N 32 50 17 27 1013.5 1013.6 0.0
05/01:30pm 18.9 12.6 9.7 55 4.9 N 33 50 18 27 1013.4 1013.5 0.0
05/01:00pm 18.2 11.3 9.0 55 4.8 N 35 57 19 31 1013.8 1013.9 0.0
05/12:30pm 18.7 11.9 9.2 54 5.0 N 35 54 19 29 1014.4 1014.5 0.0
05/12:01pm 18.0 10.3 8.8 55 4.8 N 39 57 21 31 1014.7 1014.8 0.0
05/12:00pm 18.5 11.0 9.3 55 4.8 N 39 56 21 30 1014.8 1014.9 0.0
05/11:32am 18.3 11.8 8.8 54 5.0 N 33 52 18 28 1015.4 1015.4 0.0
05/11:30am 18.7 12.2 8.9 53 5.1 N 33 46 18 25 1015.5 1015.5 0.0
05/11:00am 18.5 12.1 8.5 52 5.2 N 32 46 17 25 1015.7 1015.7 0.0
05/10:41am 18.2 12.3 9.0 55 4.8 N 30 48 16 26 1015.8 1015.8 0.0
05/10:30am 18.4 12.1 8.9 54 5.0 N 32 41 17 22 1015.9 1015.9 0.0
05/10:00am 18.0 12.4 8.8 55 4.8 NNW 28 46 15 25 1016.4 1016.4 0.0
05/09:59am 17.7 12.1 8.6 55 4.7 NNW 28 46 15 25 1016.4 1016.4 0.0
05/09:30am 16.6 11.5 9.1 61 3.9 N 26 35 14 19 1016.6 1016.6 0.0
05/09:00am 15.5 11.0 8.7 64 3.5 NNE 22 30 12 16 1016.6 1016.6 0.0
05/08:30am 14.3 9.4 8.3 67 3.0 N 24 32 13 17 1016.5 1016.5 0.0
05/08:00am 13.5 8.9 8.1 70 2.7 NNE 22 32 12 17 1016.4 1016.4 0.0
05/07:30am 12.9 8.6 8.0 72 2.4 NNE 20 32 11 17 1016.4 1016.4 0.0
05/07:00am 13.0 8.0 7.9 71 2.5 N 24 35 13 19 1016.2 1016.2 0.0
05/06:30am 13.1 8.5 8.0 71 2.5 N 22 33 12 18 1016.0 1016.0 0.0
05/06:00am 13.1 8.4 7.8 70 2.6 N 22 32 12 17 1016.0 1016.0 0.0
05/05:30am 13.3 8.3 8.0 70 2.6 NNE 24 39 13 21 1015.7 1015.7 0.0
05/05:00am 12.8 8.7 7.7 71 2.5 NNE 19 30 10 16 1015.6 1015.6 0.0
05/04:30am 12.9 9.2 7.8 71 2.5 NNE 17 22 9 12 1015.7 1015.7 0.0
05/04:00am 13.0 8.9 7.7 70 2.6 N 19 26 10 14 1015.8 1015.8 0.0
05/03:30am 13.0 8.9 7.7 70 2.6 N 19 24 10 13 1015.9 1015.9 0.0
05/03:00am 13.1 8.3 7.5 69 2.7 N 22 30 12 16 1016.0 1016.0 0.0
05/02:30am 12.8 8.6 7.5 70 2.6 N 19 24 10 13 1016.4 1016.4 0.0
05/02:00am 12.9 9.1 7.6 70 2.6 N 17 20 9 11 1016.3 1016.3 0.0
05/01:30am 12.8 9.8 7.5 70 2.6 NNE 13 20 7 11 1016.4 1016.4 0.0
05/01:00am 12.6 10.2 7.1 69 2.7 NNE 9 15 5 8 1016.5 1016.5 0.0
05/12:30am 12.9 9.3 6.9 67 2.9 NNE 15 20 8 11 1016.6 1016.6 0.0
05/12:00am 12.9 9.3 6.9 67 2.9 NNE 15 20 8 11 1016.6 1016.6 0.0
 
Date/Time
EST
Tmp

°C
App
Tmp
°C
Dew
Point
°C
Rel
Hum
%
Delta-T

°C
Wind Press
QNH
hPa
Press
MSL
hPa
Rain
since
9 am
mm
Dir
 
Spd
km/h
Gust
km/h
Spd
kts
Gust
kts
04/11:30pm 13.1 9.2 6.9 66 3.0 NNE 17 24 9 13 1016.6 1016.6 0.0
04/11:00pm 13.6 9.3 7.2 65 3.1 N 19 28 10 15 1016.7 1016.7 0.0
04/10:30pm 14.0 9.5 7.1 63 3.4 N 20 30 11 16 1016.9 1016.9 0.0
04/10:00pm 14.2 9.9 7.0 62 3.5 N 19 30 10 16 1017.0 1017.0 0.0
04/09:30pm 14.4 10.4 6.7 60 3.7 N 17 22 9 12 1016.9 1016.9 0.0
04/09:00pm 14.2 10.2 6.6 60 3.7 N 17 26 9 14 1016.9 1016.9 0.0
04/08:30pm 14.3 10.6 6.4 59 3.8 N 15 24 8 13 1016.7 1016.7 0.0
04/08:00pm 14.5 10.4 6.3 58 4.0 N 17 22 9 12 1016.6 1016.6 0.0
04/07:30pm 14.6 10.5 6.4 58 4.0 N 17 28 9 15 1016.4 1016.4 0.0
04/07:00pm 14.7 9.3 6.3 57 4.1 N 24 37 13 20 1016.1 1016.1 0.0
04/06:30pm 14.8 10.3 6.1 56 4.2 N 19 28 10 15 1015.8 1015.8 0.0
04/06:00pm 14.8 10.3 6.1 56 4.2 N 19 26 10 14 1015.5 1015.5 0.0
04/05:30pm 15.1 10.9 5.9 54 4.4 N 17 26 9 14 1015.2 1015.2 0.0
04/05:00pm 15.5 10.7 5.4 51 4.8 N 20 30 11 16 1014.9 1015.0 0.0
04/04:30pm 15.8 11.1 5.1 49 5.1 NNW 19 26 10 14 1014.7 1014.8 0.0
04/04:00pm 16.0 11.1 5.0 48 5.2 NNW 20 30 11 16 1014.6 1014.7 0.0
04/03:30pm 16.0 10.9 4.1 45 5.6 NNW 20 32 11 17 1014.6 1014.7 0.0
04/03:00pm 15.9 10.1 4.3 46 5.4 NNW 24 30 13 16 1014.5 1014.6 0.0
04/02:30pm 16.3 10.9 4.4 45 5.6 NNW 22 32 12 17 1014.3 1014.4 0.0
04/02:00pm 16.3 10.7 3.7 43 5.8 NNW 22 33 12 18 1014.4 1014.5 0.0
04/01:30pm 16.8 11.6 3.5 41 6.2 NW 20 32 11 17 1014.5 1014.6 0.0
04/01:00pm 16.8 11.2 3.5 41 6.2 NW 22 32 12 17 1014.4 1014.5 0.0
04/12:30pm 15.6 10.7 4.0 46 5.4 NW 19 26 10 14 1014.8 1014.9 0.0
04/12:00pm 16.0 12.3 4.7 47 5.3 NW 13 24 7 13 1015.4 1015.4 0.0
04/11:30am 15.8 10.6 3.3 43 5.7 NW 20 32 11 17 1015.5 1015.5 0.0
04/11:00am 14.8 9.8 3.6 47 5.1 NW 19 26 10 14 1015.7 1015.7 0.0
04/10:30am 15.0 10.6 4.7 50 4.8 NW 17 24 9 13 1015.6 1015.6 0.0
04/10:00am 14.3 9.7 5.4 55 4.2 NW 19 28 10 15 1015.8 1015.8 0.0
04/09:30am 13.2 9.1 6.1 62 3.4 NNW 17 24 9 13 1015.7 1015.7 0.0
04/09:00am 11.9 7.4 6.0 67 2.8 NNW 19 26 10 14 1015.5 1015.5 0.2
04/08:30am 10.7 7.4 6.3 74 2.1 N 13 19 7 10 1015.3 1015.3 0.2
04/08:00am 9.4 6.0 5.8 78 1.7 N 13 19 7 10 1014.8 1014.9 0.2
04/07:30am 8.5 5.3 5.3 80 1.4 NNW 11 15 6 8 1014.4 1014.5 0.2
04/07:00am 8.3 5.5 5.1 80 1.4 NNW 9 13 5 7 1014.0 1014.1 0.2
04/06:30am 8.6 5.0 5.0 78 1.6 NNW 13 17 7 9 1013.5 1013.6 0.2
04/06:00am 8.7 5.4 4.7 76 1.8 NNW 11 17 6 9 1013.1 1013.2 0.2
04/05:30am 9.5 5.5 4.7 72 2.1 NW 15 20 8 11 1012.7 1012.8 0.2
04/05:00am 9.4 5.4 5.0 74 2.0 NW 15 19 8 10 1012.1 1012.2 0.2
04/04:30am 9.9 5.5 4.9 71 2.3 NW 17 20 9 11 1011.7 1011.8 0.2
04/04:00am 10.5 6.1 4.9 68 2.5 NW 17 24 9 13 1011.5 1011.6 0.2
04/03:30am 10.7 6.3 5.0 68 2.6 NW 17 22 9 12 1011.0 1011.0 0.2
04/03:00am 10.7 6.8 5.5 70 2.4 NW 15 22 8 12 1010.5 1010.5 0.2
04/02:30am 10.1 7.2 4.9 70 2.4 NNW 9 13 5 7 1010.5 1010.5 0.2
04/02:00am 11.2 8.0 5.1 66 2.8 NW 11 17 6 9 1010.4 1010.4 0.2
04/01:30am 11.9 7.6 5.1 63 3.1 NW 17 26 9 14 1010.3 1010.3 0.2
04/01:00am 11.3 7.7 5.0 65 2.9 WNW 13 20 7 11 1010.0 1010.0 0.2
04/12:30am 12.2 6.9 4.9 61 3.4 W 22 30 12 16 1009.9 1009.9 0.2
04/12:00am 12.9 8.0 5.3 60 3.6 WNW 20 28 11 15 1009.8 1009.8 0.2
 
Date/Time
EST
Tmp

°C
App
Tmp
°C
Dew
Point
°C
Rel
Hum
%
Delta-T

°C
Wind Press
QNH
hPa
Press
MSL
hPa
Rain
since
9 am
mm
Dir
 
Spd
km/h
Gust
km/h
Spd
kts
Gust
kts
03/11:30pm 13.0 8.3 5.2 59 3.6 WNW 19 30 10 16 1009.4 1009.4 0.2
03/11:00pm 12.2 9.3 4.7 60 3.4 NW 9 11 5 6 1009.0 1009.0 0.2
03/10:30pm 12.9 8.8 4.6 57 3.8 WNW 15 20 8 11 1008.8 1008.8 0.2
03/10:00pm 13.6 10.1 5.5 58 3.8 NW 13 20 7 11 1008.5 1008.5 0.2
03/09:30pm 13.8 10.4 5.9 59 3.8 NW 13 20 7 11 1008.3 1008.3 0.2
03/09:00pm 13.5 10.7 6.8 64 3.3 NNW 11 17 6 9 1007.7 1007.7 0.2
03/08:30pm 13.8 10.6 6.7 62 3.4 WNW 13 20 7 11 1007.3 1007.3 0.2
03/08:00pm 13.6 9.7 7.2 65 3.1 WNW 17 22 9 12 1006.9 1006.9 0.2
03/07:30pm 14.4 9.0 6.3 58 3.9 W 24 33 13 18 1006.5 1006.5 0.2
03/07:00pm 15.0 7.6 6.6 57 4.1 W 35 50 19 27 1006.1 1006.1 0.2
03/06:55pm 15.1 8.8 7.2 59 3.9 W 30 48 16 26 1006.0 1006.0 0.2
03/06:30pm 15.3 9.5 8.1 62 3.6 W 28 37 15 20 1005.3 1005.3 0.2
03/06:00pm 14.6 10.4 9.6 72 2.6 W 22 33 12 18 1004.3 1004.3 0.2
03/05:30pm 14.4 9.9 10.2 76 2.2 WNW 24 35 13 19 1003.6 1003.6 0.2
03/05:00pm 14.2 8.2 10.2 77 2.1 W 32 50 17 27 1003.2 1003.2 0.2
03/04:30pm 13.8 3.5 9.6 76 2.2 W 54 82 29 44 1002.2 1002.2 0.2
03/04:24pm 14.7 5.3 8.9 68 3.0 W 48 82 26 44 1002.1 1002.1 0.2
03/04:17pm 15.6 9.2 9.3 66 3.3 NW 33 61 18 33 1002.1 1002.1 0.2
03/04:00pm 18.2 13.5 12.0 67 3.4 NNW 28 52 15 28 1001.1 1001.2 0.2
03/03:36pm 17.3 12.0 11.3 68 3.3 NNW 30 48 16 26 1000.7 1000.8 0.2
03/03:30pm 17.5 11.8 11.3 67 3.4 NNW 32 48 17 26 1000.5 1000.5 0.2
03/03:01pm 18.0 12.5 10.6 62 4.0 NNW 30 56 16 30 1000.1 1000.1 0.2
03/03:00pm 18.0 12.5 10.6 62 4.0 NNW 30 46 16 25 1000.0 1000.0 0.2
03/02:30pm 18.4 11.5 10.3 59 4.3 N 37 57 20 31 999.6 999.6 0.2
03/02:00pm 19.0 11.9 9.5 54 5.1 N 37 56 20 30 999.5 999.5 0.2
03/01:30pm 18.5 9.9 8.7 53 5.1 N 44 69 24 37 999.5 999.5 0.2
03/01:00pm 18.5 10.4 8.7 53 5.1 N 41 69 22 37 999.8 999.8 0.2
03/12:30pm 19.1 10.6 8.4 50 5.6 N 43 63 23 34 999.3 999.3 0.2
03/12:00pm 18.2 10.3 7.9 51 5.3 N 39 61 21 33 1000.0 1000.0 0.2
03/11:30am 18.8 10.9 7.9 49 5.6 N 39 57 21 31 1001.0 1001.1 0.2
03/11:00am 17.9 10.1 6.7 48 5.6 N 37 57 20 31 1001.4 1001.5 0.2
03/10:30am 17.8 8.9 6.7 48 5.5 N 43 63 23 34 1002.0 1002.0 0.2
03/10:00am 17.6 8.4 6.5 48 5.5 N 44 67 24 36 1002.0 1002.0 0.2
03/09:30am 16.6 7.7 6.7 52 4.9 N 43 65 23 35 1001.8 1001.9 0.2
03/09:00am 15.9 7.0 6.9 55 4.5 N 43 61 23 33 1002.5 1002.5 0.0
03/08:30am 15.3 6.3 6.6 56 4.3 N 43 65 23 35 1002.3 1002.3 -
03/08:00am 14.9 7.1 6.7 58 4.0 N 37 57 20 31 1003.3 1003.3 -
03/07:30am 14.5 5.9 6.6 59 3.8 N 41 59 22 32 1002.9 1002.9 -
03/07:00am 14.2 5.9 6.3 59 3.8 N 39 59 21 32 1003.0 1003.0 -
03/06:30am 14.1 5.4 6.0 58 3.9 N 41 59 22 32 1003.1 1003.1 -
03/06:00am 14.3 6.3 5.9 57 4.0 N 37 56 20 30 1003.2 1003.2 -
03/05:57am 14.2 6.3 6.1 58 3.9 N 37 56 20 30 1003.2 1003.2 -

Latest Capital City Observations: Canberra | Sydney | Melbourne | Brisbane | Adelaide | Perth | Hobart | Darwin

Other Formats:

Comma delimited format used in spreadsheet applications
http://www.bom.gov.au/fwo/IDV60901/IDV60901.95866.axf

JavaScript Object Notation format (JSON) in row-major order
http://www.bom.gov.au/fwo/IDV60901/IDV60901.95866.json